Terminal Aerodrome Forecast
Issued by NWS Topeka, KS

Home | Current Version | Previous Version | Graphics & Text | Print | Product List | Glossary On
Versions: 1 2 3 4 5 6 7 8 9 10 11 12 13 14 15 16 17 18 19 20 21 22 23 24 25 26 27 28 29 30 31 32 33
000
FTUS43 KTOP 011100 AAB
TAFTOP
TAF AMD
KTOP 011159Z 0112/0212 21009KT P6SM SCT011
     FM011500 26007KT P6SM SCT015 BKN025
     FM011900 33008KT P6SM SCT030 BKN090
     FM012300 01007KT P6SM VCTS SCT035CB BKN090
     FM020200 01004KT P6SM SCT015 BKN150=

USA.gov is the U.S. government's official web portal to all federal, state and local government web resources and services.